createdAt,value
2023-02-14T00:03:01.055Z,6.94
2023-02-14T00:06:26.180Z,6.95
2023-02-14T00:09:51.342Z,6.94
2023-02-14T00:13:16.526Z,6.91
2023-02-14T00:16:41.682Z,6.9
2023-02-14T00:20:06.860Z,6.87
2023-02-14T00:23:32.012Z,6.84
2023-02-14T00:26:57.187Z,6.83
2023-02-14T00:30:22.421Z,6.82
2023-02-14T00:33:47.503Z,6.82
2023-02-14T00:37:12.662Z,6.79
2023-02-14T00:40:37.838Z,6.73
2023-02-14T00:44:03.009Z,6.71
2023-02-14T00:47:28.206Z,6.71
2023-02-14T00:50:53.354Z,6.72
2023-02-14T00:54:18.530Z,6.73
2023-02-14T00:57:43.689Z,6.77
2023-02-14T01:01:08.914Z,6.77
2023-02-14T01:04:34.065Z,6.79
2023-02-14T01:07:59.202Z,6.74
2023-02-14T01:11:24.373Z,6.68
2023-02-14T01:14:49.547Z,6.64
2023-02-14T01:18:15.747Z,6.61
2023-02-14T01:21:41.126Z,6.52
2023-02-14T01:25:06.286Z,6.35
2023-02-14T01:28:31.450Z,6.18
2023-02-14T01:31:56.714Z,6
2023-02-14T01:35:21.860Z,5.83
2023-02-14T01:38:47.022Z,5.68
2023-02-14T01:42:12.159Z,5.55
2023-02-14T01:45:37.366Z,5.42
2023-02-14T01:49:02.521Z,5.36
2023-02-14T01:52:27.729Z,5.26
2023-02-14T01:55:52.910Z,5.13
2023-02-14T01:59:18.087Z,5.07
2023-02-14T02:02:43.386Z,5.08
2023-02-14T02:06:08.439Z,5.06
2023-02-14T02:09:33.634Z,5.05
2023-02-14T02:12:58.813Z,5.03
2023-02-14T02:16:23.978Z,5.04
2023-02-14T02:19:49.132Z,5.07
2023-02-14T02:23:14.307Z,5.09
2023-02-14T02:26:39.501Z,5.08
2023-02-14T02:30:05.577Z,5
2023-02-14T02:33:30.633Z,4.96
2023-02-14T02:36:55.807Z,4.93
2023-02-14T02:40:20.981Z,4.89
2023-02-14T02:43:46.180Z,4.88
2023-02-14T02:47:11.772Z,4.88
2023-02-14T02:50:36.542Z,4.87
2023-02-14T02:54:01.720Z,4.81
2023-02-14T02:57:26.929Z,4.74
2023-02-14T03:00:52.125Z,4.74
2023-02-14T03:04:17.305Z,4.73
2023-02-14T03:07:42.462Z,4.74
2023-02-14T03:11:07.635Z,4.78
2023-02-14T03:14:32.815Z,4.78
2023-02-14T03:17:58.000Z,4.75
2023-02-14T03:21:23.205Z,4.72
2023-02-14T03:24:48.352Z,4.73
2023-02-14T03:28:13.530Z,4.73
2023-02-14T03:31:38.843Z,4.71
2023-02-14T03:35:03.907Z,4.65
2023-02-14T03:38:29.104Z,4.55
2023-02-14T03:41:54.255Z,4.53
2023-02-14T03:45:19.423Z,4.59
2023-02-14T03:48:44.584Z,4.64
2023-02-14T03:52:09.744Z,4.68
2023-02-14T03:55:34.916Z,4.69
2023-02-14T03:59:00.098Z,4.67
2023-02-14T04:02:25.532Z,4.7
2023-02-14T04:05:50.705Z,4.7
2023-02-14T04:09:15.875Z,4.71
2023-02-14T04:12:41.100Z,4.73
2023-02-14T04:16:06.240Z,4.69
2023-02-14T04:19:31.403Z,4.62
2023-02-14T04:22:56.570Z,4.54
2023-02-14T04:26:21.742Z,4.53
2023-02-14T04:29:46.932Z,4.52
2023-02-14T04:33:12.088Z,4.5
2023-02-14T04:36:37.267Z,4.39
2023-02-14T04:40:02.464Z,4.31
2023-02-14T04:43:27.597Z,4.29
2023-02-14T04:46:52.844Z,4.33
2023-02-14T04:50:17.942Z,4.39
2023-02-14T04:53:43.114Z,4.44
2023-02-14T04:57:08.299Z,4.47
2023-02-14T05:00:33.545Z,4.43
2023-02-14T05:03:58.675Z,4.37
2023-02-14T05:07:23.818Z,4.35
2023-02-14T05:10:48.976Z,4.32
2023-02-14T05:14:14.152Z,4.35
2023-02-14T05:17:39.332Z,4.39
2023-02-14T05:21:04.536Z,4.37
2023-02-14T05:24:29.680Z,4.33
2023-02-14T05:27:54.850Z,4.29
2023-02-14T05:31:20.204Z,4.3
2023-02-14T05:34:45.196Z,4.3
2023-02-14T05:38:10.438Z,4.32
2023-02-14T05:41:28.319Z,4.32
2023-02-14T05:44:53.482Z,4.29
2023-02-14T05:48:18.662Z,4.2
2023-02-14T05:51:43.858Z,4.19
2023-02-14T05:55:09.018Z,4.22
2023-02-14T05:58:34.188Z,4.17
2023-02-14T06:01:59.422Z,4.12
2023-02-14T06:05:24.603Z,4.08
2023-02-14T06:08:49.801Z,4.04
2023-02-14T06:12:15.153Z,4.03
2023-02-14T06:15:40.328Z,4.05
2023-02-14T06:19:05.530Z,4.06
2023-02-14T06:22:30.877Z,4.08
2023-02-14T06:25:55.893Z,4.08
2023-02-14T06:29:21.150Z,4.09
2023-02-14T06:32:46.344Z,4.14
2023-02-14T06:36:11.548Z,4.16
2023-02-14T06:39:36.743Z,4.2
2023-02-14T06:43:01.967Z,4.29
2023-02-14T06:46:27.271Z,4.36
2023-02-14T06:49:52.403Z,4.44
2023-02-14T06:53:17.729Z,4.48
2023-02-14T06:56:42.932Z,4.53
2023-02-14T07:00:08.152Z,4.59
2023-02-14T07:03:33.386Z,4.62
2023-02-14T07:06:58.598Z,4.65
2023-02-14T07:10:27.349Z,4.68
2023-02-14T07:13:52.591Z,4.74
2023-02-14T07:17:17.821Z,4.78
2023-02-14T07:20:43.043Z,4.79
2023-02-14T07:24:08.262Z,4.83
2023-02-14T07:27:33.449Z,4.85
2023-02-14T07:30:58.946Z,4.93
2023-02-14T07:34:23.894Z,5.03
2023-02-14T07:37:49.150Z,5.1
2023-02-14T07:41:17.590Z,5.18
2023-02-14T07:44:43.348Z,5.25
2023-02-14T07:48:08.632Z,5.34
2023-02-14T07:51:33.801Z,5.42
2023-02-14T07:54:59.152Z,5.55
2023-02-14T07:58:24.188Z,5.66
2023-02-14T08:01:49.448Z,5.76
2023-02-14T08:05:14.739Z,5.89
2023-02-14T08:08:39.881Z,6.03
2023-02-14T08:12:05.084Z,6.16
2023-02-14T08:15:30.250Z,6.31
2023-02-14T08:18:55.453Z,6.44
2023-02-14T08:22:20.619Z,6.63
2023-02-14T08:25:45.826Z,6.82
2023-02-14T08:29:11.073Z,7
2023-02-14T08:32:36.386Z,7.18
2023-02-14T08:36:01.553Z,7.34
2023-02-14T08:39:26.769Z,7.48
2023-02-14T08:42:51.979Z,7.62
2023-02-14T08:46:17.374Z,7.71
2023-02-14T08:49:42.442Z,7.8
2023-02-14T08:53:07.650Z,7.88
2023-02-14T08:56:32.867Z,7.95
2023-02-14T08:59:58.101Z,8.05
2023-02-14T09:03:23.353Z,8.16
2023-02-14T09:06:48.529Z,8.25
2023-02-14T09:10:13.776Z,8.38
2023-02-14T09:13:39.030Z,8.46
2023-02-14T09:17:04.209Z,8.56
2023-02-14T09:20:30.078Z,8.66
2023-02-14T09:23:55.301Z,8.76
2023-02-14T09:27:20.551Z,8.87
2023-02-14T09:30:45.742Z,8.99
2023-02-14T09:34:10.968Z,9.11
2023-02-14T09:37:36.245Z,9.23
2023-02-14T09:41:01.695Z,9.37
2023-02-14T09:44:26.595Z,9.49
2023-02-14T09:47:51.784Z,9.6
2023-02-14T09:51:16.972Z,9.7
2023-02-14T09:54:42.318Z,9.79
2023-02-14T09:58:07.433Z,9.87
2023-02-14T10:01:32.682Z,9.95
2023-02-14T10:04:57.796Z,10.02
2023-02-14T10:08:23.023Z,10.09
2023-02-14T10:11:48.319Z,10.18
2023-02-14T10:15:13.503Z,10.24
2023-02-14T10:18:38.768Z,10.33
2023-02-14T10:22:03.993Z,10.41
2023-02-14T10:25:29.177Z,10.48
2023-02-14T10:28:54.387Z,10.58
2023-02-14T10:32:19.610Z,10.66
2023-02-14T10:35:44.920Z,10.76
2023-02-14T10:39:10.160Z,10.85
2023-02-14T10:42:35.363Z,10.97
2023-02-14T10:46:00.633Z,11.05
2023-02-14T10:49:27.042Z,11.16
2023-02-14T10:52:52.215Z,11.27
2023-02-14T10:56:17.413Z,11.37
2023-02-14T10:59:42.708Z,11.47
2023-02-14T11:03:08.045Z,11.58
2023-02-14T11:06:33.106Z,11.65
2023-02-14T11:09:58.336Z,11.72
2023-02-14T11:13:23.542Z,11.78
2023-02-14T11:16:48.775Z,11.85
2023-02-14T11:20:13.974Z,11.93
2023-02-14T11:23:39.151Z,12.03
2023-02-14T11:27:04.364Z,12.1
2023-02-14T11:30:29.727Z,12.15
2023-02-14T11:33:54.833Z,12.24
2023-02-14T11:37:20.090Z,12.33
2023-02-14T11:40:47.036Z,12.41
2023-02-14T11:44:12.240Z,12.53
2023-02-14T11:47:38.463Z,12.62
2023-02-14T11:51:04.912Z,12.69
2023-02-14T11:54:30.451Z,12.74
2023-02-14T11:57:55.801Z,12.78
2023-02-14T12:01:21.535Z,12.85
2023-02-14T12:04:47.901Z,12.91
2023-02-14T12:08:19.702Z,12.96
2023-02-14T12:11:45.571Z,13
2023-02-14T12:15:10.866Z,13.02
2023-02-14T12:18:36.207Z,13.03
2023-02-14T12:22:01.547Z,13.05
2023-02-14T12:25:26.958Z,13.04
2023-02-14T12:28:52.404Z,13.1
2023-02-14T12:32:17.688Z,13.11
2023-02-14T12:35:43.033Z,13.11
2023-02-14T12:39:08.331Z,13.11
2023-02-14T12:42:33.628Z,13.07
2023-02-14T12:45:59.252Z,13.06
2023-02-14T12:49:30.943Z,13.07
2023-02-14T12:52:57.725Z,13.06
2023-02-14T12:56:23.077Z,13.05
2023-02-14T12:59:48.404Z,13.04
2023-02-14T13:03:13.786Z,13.07
2023-02-14T13:06:39.011Z,13.11
2023-02-14T13:10:04.342Z,13.11
2023-02-14T13:13:30.354Z,13.12
2023-02-14T13:16:55.722Z,13.12
2023-02-14T13:20:21.267Z,13.13
2023-02-14T13:23:46.633Z,13.13
2023-02-14T13:27:12.038Z,13.12
2023-02-14T13:30:37.619Z,13.11
2023-02-14T13:34:02.792Z,13.11
2023-02-14T13:37:28.284Z,13.11
2023-02-14T13:40:53.613Z,13.09
2023-02-14T13:44:18.957Z,13.06
2023-02-14T13:47:44.817Z,13.03
2023-02-14T13:51:10.783Z,13.03
2023-02-14T13:54:36.112Z,13.02
2023-02-14T13:58:01.453Z,13
2023-02-14T14:01:26.882Z,13.01
2023-02-14T14:04:52.234Z,13.03
2023-02-14T14:08:17.566Z,13.02
2023-02-14T14:11:42.941Z,13.02
2023-02-14T14:15:08.262Z,13.01
2023-02-14T14:18:33.569Z,13
2023-02-14T14:21:58.940Z,13
2023-02-14T14:25:24.344Z,12.98
2023-02-14T14:28:49.699Z,12.95
2023-02-14T15:04:36.551Z,10.51
2023-02-14T15:08:02.060Z,11.44
2023-02-14T15:11:27.577Z,11.63
2023-02-14T15:14:53.011Z,11.79
2023-02-14T15:18:18.492Z,11.92
2023-02-14T15:21:44.752Z,12.02
2023-02-14T15:25:09.288Z,12.08
2023-02-14T15:28:34.625Z,12.11
2023-02-14T15:32:02.772Z,12.09
2023-02-14T15:35:25.211Z,12.07
2023-02-14T15:38:50.534Z,12.02
2023-02-14T15:42:15.838Z,11.96
2023-02-14T15:45:41.156Z,11.83
2023-02-14T15:49:06.464Z,11.69
2023-02-14T15:52:31.772Z,11.52
2023-02-14T15:55:57.116Z,11.32
2023-02-14T15:59:22.380Z,11.06
2023-02-14T16:02:47.744Z,10.81
2023-02-14T16:06:12.987Z,10.5
2023-02-14T16:09:38.352Z,10.21
2023-02-14T16:13:03.623Z,9.86
2023-02-14T16:16:28.766Z,9.56
2023-02-14T16:19:53.963Z,9.35
2023-02-14T16:23:19.190Z,9.2
2023-02-14T16:26:44.369Z,9.11
2023-02-14T16:30:09.668Z,8.95
2023-02-14T16:33:34.846Z,8.85
2023-02-14T16:37:00.044Z,8.79
2023-02-14T16:40:25.227Z,8.74
2023-02-14T16:43:50.488Z,8.67
2023-02-14T16:47:15.687Z,8.55
2023-02-14T16:50:40.895Z,8.35
2023-02-14T16:54:06.159Z,8.21
2023-02-14T16:57:31.351Z,8.18
2023-02-14T17:00:56.593Z,8.2
2023-02-14T17:04:21.835Z,8.19
2023-02-14T17:07:46.986Z,8.16
2023-02-14T17:11:12.195Z,8.13
2023-02-14T17:14:37.410Z,8.11
2023-02-14T17:18:02.681Z,8.08
2023-02-14T17:21:27.959Z,8.03
2023-02-14T17:24:53.105Z,7.95
2023-02-14T17:28:18.350Z,7.91
2023-02-14T17:31:43.726Z,7.84
2023-02-14T17:35:08.926Z,7.79
2023-02-14T17:38:34.086Z,7.71
2023-02-14T17:41:59.255Z,7.54
2023-02-14T17:45:24.476Z,7.45
2023-02-14T17:48:49.696Z,7.47
2023-02-14T17:52:14.958Z,7.42
2023-02-14T17:55:40.170Z,7.41
2023-02-14T17:59:05.351Z,7.34
2023-02-14T18:02:30.629Z,7.27
2023-02-14T18:05:55.833Z,7.23
2023-02-14T18:09:26.135Z,7.16
2023-02-14T18:12:52.153Z,7.14
2023-02-14T18:16:17.473Z,7.16
2023-02-14T18:19:42.632Z,7.15
2023-02-14T18:23:07.897Z,7.07
2023-02-14T18:26:33.144Z,6.96
2023-02-14T18:29:58.553Z,6.84
2023-02-14T18:33:25.419Z,6.72
2023-02-14T18:36:48.946Z,6.72
2023-02-14T18:40:14.213Z,6.72
2023-02-14T18:43:39.435Z,6.76
2023-02-14T18:47:04.708Z,6.77
2023-02-14T18:50:29.909Z,6.76
2023-02-14T18:53:55.185Z,6.75
2023-02-14T18:57:20.436Z,6.72
2023-02-14T19:00:45.705Z,6.7
2023-02-14T19:04:11.031Z,6.65
2023-02-14T19:07:36.234Z,6.6
2023-02-14T19:11:01.659Z,6.51
2023-02-14T19:14:26.878Z,6.44
2023-02-14T19:17:52.088Z,6.44
2023-02-14T19:21:17.377Z,6.43
2023-02-14T19:24:42.622Z,6.4
2023-02-14T19:28:07.876Z,6.41
2023-02-14T19:31:33.291Z,6.42
2023-02-14T19:34:58.445Z,6.37
2023-02-14T19:38:23.703Z,6.26
2023-02-14T19:41:48.948Z,6.21
2023-02-14T19:45:14.194Z,6.2
2023-02-14T19:48:39.482Z,6.15
2023-02-14T19:52:06.136Z,6.09
2023-02-14T19:55:30.022Z,6.08
2023-02-14T19:58:55.243Z,6.08
2023-02-14T20:02:20.544Z,5.99
2023-02-14T20:05:45.792Z,5.95
2023-02-14T20:09:11.052Z,5.89
2023-02-14T20:12:36.339Z,5.86
2023-02-14T20:16:01.536Z,5.82
2023-02-14T20:19:26.787Z,5.81
2023-02-14T20:22:52.069Z,5.77
2023-02-14T20:26:17.264Z,5.71
2023-02-14T20:29:42.563Z,5.67
2023-02-14T20:33:07.848Z,5.63
2023-02-14T20:36:33.469Z,5.6
2023-02-14T20:39:58.732Z,5.58
2023-02-14T20:43:23.949Z,5.59
2023-02-14T20:46:49.172Z,5.61
2023-02-14T20:50:14.317Z,5.62
2023-02-14T20:53:39.510Z,5.63
2023-02-14T20:57:04.693Z,5.66
2023-02-14T21:00:29.871Z,5.74
2023-02-14T21:03:55.111Z,5.83
2023-02-14T21:07:20.197Z,5.93
2023-02-14T21:10:45.366Z,6.02
2023-02-14T21:14:10.538Z,6.12
2023-02-14T21:17:35.696Z,6.2
2023-02-14T21:21:01.224Z,6.28
2023-02-14T21:24:26.054Z,6.35
2023-02-14T21:27:51.247Z,6.41
2023-02-14T21:31:16.509Z,6.44
2023-02-14T21:34:41.582Z,6.51
2023-02-14T21:38:06.800Z,6.56
2023-02-14T21:41:31.949Z,6.62
2023-02-14T21:44:57.103Z,6.7
2023-02-14T21:48:22.248Z,6.73
2023-02-14T21:51:47.412Z,6.74
2023-02-14T21:55:12.643Z,6.72
2023-02-14T21:58:37.786Z,6.73
2023-02-14T22:02:02.968Z,6.66
2023-02-14T22:05:28.119Z,6.6
2023-02-14T22:08:53.291Z,6.51
2023-02-14T22:12:18.497Z,6.45
2023-02-14T22:15:43.690Z,6.45
2023-02-14T22:19:08.802Z,6.5
2023-02-14T22:22:33.980Z,6.54
2023-02-14T22:25:59.132Z,6.59
2023-02-14T22:29:24.322Z,6.65
2023-02-14T22:32:49.458Z,6.73
2023-02-14T22:36:14.609Z,6.78
2023-02-14T22:39:39.790Z,6.77
2023-02-14T22:43:04.947Z,6.69
2023-02-14T22:46:30.190Z,6.62
2023-02-14T22:49:55.291Z,6.52
2023-02-14T22:53:20.447Z,6.4
2023-02-14T22:56:45.662Z,6.36
2023-02-14T23:00:10.791Z,6.38
2023-02-14T23:03:35.999Z,6.44
2023-02-14T23:07:01.120Z,6.55
2023-02-14T23:10:28.054Z,6.66
2023-02-14T23:13:53.233Z,6.72
2023-02-14T23:17:18.408Z,6.77
2023-02-14T23:20:43.587Z,6.82
2023-02-14T23:24:08.773Z,6.86
2023-02-14T23:27:33.953Z,6.87
2023-02-14T23:30:59.124Z,6.89
2023-02-14T23:34:24.277Z,6.89
2023-02-14T23:37:49.476Z,6.88
2023-02-14T23:41:14.657Z,6.87
2023-02-14T23:44:39.848Z,6.86
2023-02-14T23:48:05.004Z,6.87
2023-02-14T23:51:30.179Z,6.9
2023-02-14T23:54:55.345Z,6.92
2023-02-14T23:58:20.521Z,6.91
